sensor_id;sensor_type;location;lat;lon;timestamp;temperature;humidity
53152;DHT22;39234;53.158;6.322;2023-04-06T00:03:37;1.30;99.90
53152;DHT22;39234;53.158;6.322;2023-04-06T00:40:09;0.60;99.90
53152;DHT22;39234;53.158;6.322;2023-04-06T00:59:40;0.60;99.90
53152;DHT22;39234;53.158;6.322;2023-04-06T01:04:33;0.70;99.90
53152;DHT22;39234;53.158;6.322;2023-04-06T01:09:27;0.60;99.90
53152;DHT22;39234;53.158;6.322;2023-04-06T01:24:07;0.50;99.90
53152;DHT22;39234;53.158;6.322;2023-04-06T01:29:00;0.60;99.90
53152;DHT22;39234;53.158;6.322;2023-04-06T02:08:05;0.30;99.90
53152;DHT22;39234;53.158;6.322;2023-04-06T02:10:32;0.20;99.90
53152;DHT22;39234;53.158;6.322;2023-04-06T02:30:05;0.20;99.90
53152;DHT22;39234;53.158;6.322;2023-04-06T02:44:43;0.30;99.90
53152;DHT22;39234;53.158;6.322;2023-04-06T02:52:02;0.50;99.90
53152;DHT22;39234;53.158;6.322;2023-04-06T03:09:05;0.30;99.90
53152;DHT22;39234;53.158;6.322;2023-04-06T04:00:17;0.20;99.90
53152;DHT22;39234;53.158;6.322;2023-04-06T05:06:05;-0.30;99.90
53152;DHT22;39234;53.158;6.322;2023-04-06T05:42:39;2.50;99.90
53152;DHT22;39234;53.158;6.322;2023-04-06T05:45:08;2.80;99.90
53152;DHT22;39234;53.158;6.322;2023-04-06T05:54:54;3.50;99.90
53152;DHT22;39234;53.158;6.322;2023-04-06T06:02:12;4.10;99.90
53152;DHT22;39234;53.158;6.322;2023-04-06T06:04:38;4.60;99.90
53152;DHT22;39234;53.158;6.322;2023-04-06T06:07:03;5.40;99.90
53152;DHT22;39234;53.158;6.322;2023-04-06T06:09:29;5.70;99.90
53152;DHT22;39234;53.158;6.322;2023-04-06T06:11:55;5.90;99.90
53152;DHT22;39234;53.158;6.322;2023-04-06T06:14:21;6.30;99.90
53152;DHT22;39234;53.158;6.322;2023-04-06T06:16:47;6.60;99.90
53152;DHT22;39234;53.158;6.322;2023-04-06T06:19:13;7.10;99.90
53152;DHT22;39234;53.158;6.322;2023-04-06T06:21:39;7.70;99.90
53152;DHT22;39234;53.158;6.322;2023-04-06T06:24:06;8.10;99.90
53152;DHT22;39234;53.158;6.322;2023-04-06T06:26:32;8.20;99.90
53152;DHT22;39234;53.158;6.322;2023-04-06T06:28:58;8.60;99.90
53152;DHT22;39234;53.158;6.322;2023-04-06T06:31:24;9.00;99.90
53152;DHT22;39234;53.158;6.322;2023-04-06T06:33:50;9.60;99.90
53152;DHT22;39234;53.158;6.322;2023-04-06T06:36:19;9.70;99.90
53152;DHT22;39234;53.158;6.322;2023-04-06T06:38:45;10.10;99.90
53152;DHT22;39234;53.158;6.322;2023-04-06T06:41:11;10.60;99.90
53152;DHT22;39234;53.158;6.322;2023-04-06T06:43:37;10.70;99.90
53152;DHT22;39234;53.158;6.322;2023-04-06T06:46:03;9.10;99.90
53152;DHT22;39234;53.158;6.322;2023-04-06T06:48:30;10.90;99.90
53152;DHT22;39234;53.158;6.322;2023-04-06T06:50:56;11.60;99.90
53152;DHT22;39234;53.158;6.322;2023-04-06T06:53:22;11.80;99.90
53152;DHT22;39234;53.158;6.322;2023-04-06T06:55:48;11.50;99.90
53152;DHT22;39234;53.158;6.322;2023-04-06T06:58:19;11.50;99.90
53152;DHT22;39234;53.158;6.322;2023-04-06T07:00:48;11.60;99.90
53152;DHT22;39234;53.158;6.322;2023-04-06T07:03:14;12.10;99.90
53152;DHT22;39234;53.158;6.322;2023-04-06T07:05:45;12.30;99.90
53152;DHT22;39234;53.158;6.322;2023-04-06T07:08:15;12.60;99.90
53152;DHT22;39234;53.158;6.322;2023-04-06T07:10:41;12.90;99.90
53152;DHT22;39234;53.158;6.322;2023-04-06T07:13:07;13.00;99.90
53152;DHT22;39234;53.158;6.322;2023-04-06T07:15:33;13.60;99.90
53152;DHT22;39234;53.158;6.322;2023-04-06T07:17:58;13.40;99.90
53152;DHT22;39234;53.158;6.322;2023-04-06T07:20:25;13.70;99.90
53152;DHT22;39234;53.158;6.322;2023-04-06T07:22:51;14.10;99.90
53152;DHT22;39234;53.158;6.322;2023-04-06T07:25:16;13.70;99.90
53152;DHT22;39234;53.158;6.322;2023-04-06T07:27:42;14.00;99.90
53152;DHT22;39234;53.158;6.322;2023-04-06T07:30:08;13.70;99.90
53152;DHT22;39234;53.158;6.322;2023-04-06T07:32:34;14.00;99.90
53152;DHT22;39234;53.158;6.322;2023-04-06T07:35:01;13.30;99.90
53152;DHT22;39234;53.158;6.322;2023-04-06T07:37:27;13.00;99.90
53152;DHT22;39234;53.158;6.322;2023-04-06T07:39:53;12.70;99.90
53152;DHT22;39234;53.158;6.322;2023-04-06T07:42:18;12.30;99.90
53152;DHT22;39234;53.158;6.322;2023-04-06T07:44:44;12.00;99.90
53152;DHT22;39234;53.158;6.322;2023-04-06T07:47:10;12.10;99.90
53152;DHT22;39234;53.158;6.322;2023-04-06T07:49:36;12.20;99.90
53152;DHT22;39234;53.158;6.322;2023-04-06T07:52:02;12.40;99.90
53152;DHT22;39234;53.158;6.322;2023-04-06T07:54:28;12.30;99.90
53152;DHT22;39234;53.158;6.322;2023-04-06T07:56:54;12.00;99.90
53152;DHT22;39234;53.158;6.322;2023-04-06T07:59:20;12.10;99.90
53152;DHT22;39234;53.158;6.322;2023-04-06T08:01:46;12.00;99.90
53152;DHT22;39234;53.158;6.322;2023-04-06T08:04:11;11.80;99.90
53152;DHT22;39234;53.158;6.322;2023-04-06T08:06:37;12.00;99.90
53152;DHT22;39234;53.158;6.322;2023-04-06T08:09:03;12.00;99.90
53152;DHT22;39234;53.158;6.322;2023-04-06T08:11:29;12.20;99.90
53152;DHT22;39234;53.158;6.322;2023-04-06T08:13:57;12.40;99.90
53152;DHT22;39234;53.158;6.322;2023-04-06T08:16:23;12.90;99.90
53152;DHT22;39234;53.158;6.322;2023-04-06T08:18:49;13.50;99.90
53152;DHT22;39234;53.158;6.322;2023-04-06T08:21:15;13.60;99.90
53152;DHT22;39234;53.158;6.322;2023-04-06T08:23:41;14.10;99.90
53152;DHT22;39234;53.158;6.322;2023-04-06T08:26:07;13.60;99.90
53152;DHT22;39234;53.158;6.322;2023-04-06T08:28:33;12.90;99.90
53152;DHT22;39234;53.158;6.322;2023-04-06T08:31:03;12.80;99.90
53152;DHT22;39234;53.158;6.322;2023-04-06T08:33:29;12.40;99.90
53152;DHT22;39234;53.158;6.322;2023-04-06T08:35:55;11.80;99.90
53152;DHT22;39234;53.158;6.322;2023-04-06T08:38:21;11.80;99.90
53152;DHT22;39234;53.158;6.322;2023-04-06T08:40:47;11.80;99.90
53152;DHT22;39234;53.158;6.322;2023-04-06T08:43:17;12.10;99.90
53152;DHT22;39234;53.158;6.322;2023-04-06T08:45:46;12.30;99.90
53152;DHT22;39234;53.158;6.322;2023-04-06T08:48:12;12.30;99.90
53152;DHT22;39234;53.158;6.322;2023-04-06T08:50:38;12.60;99.90
53152;DHT22;39234;53.158;6.322;2023-04-06T08:53:06;12.50;99.90
53152;DHT22;39234;53.158;6.322;2023-04-06T08:55:32;12.30;99.90
53152;DHT22;39234;53.158;6.322;2023-04-06T08:57:58;12.10;99.90
53152;DHT22;39234;53.158;6.322;2023-04-06T09:00:25;11.80;99.90
53152;DHT22;39234;53.158;6.322;2023-04-06T09:02:53;11.70;99.90
53152;DHT22;39234;53.158;6.322;2023-04-06T09:05:21;11.40;99.90
53152;DHT22;39234;53.158;6.322;2023-04-06T09:07:47;11.40;99.90
53152;DHT22;39234;53.158;6.322;2023-04-06T09:10:13;11.40;99.90
53152;DHT22;39234;53.158;6.322;2023-04-06T09:12:38;11.50;99.90
53152;DHT22;39234;53.158;6.322;2023-04-06T09:15:04;11.40;99.90
53152;DHT22;39234;53.158;6.322;2023-04-06T09:17:32;11.60;99.90
53152;DHT22;39234;53.158;6.322;2023-04-06T09:20:02;11.50;99.90
53152;DHT22;39234;53.158;6.322;2023-04-06T09:22:39;11.60;99.90
53152;DHT22;39234;53.158;6.322;2023-04-06T09:25:05;11.80;99.90
53152;DHT22;39234;53.158;6.322;2023-04-06T09:27:33;11.60;99.90
53152;DHT22;39234;53.158;6.322;2023-04-06T09:32:30;11.30;99.90
53152;DHT22;39234;53.158;6.322;2023-04-06T09:35:09;11.50;99.90
53152;DHT22;39234;53.158;6.322;2023-04-06T09:37:35;11.60;99.90
53152;DHT22;39234;53.158;6.322;2023-04-06T09:40:05;11.70;99.90
53152;DHT22;39234;53.158;6.322;2023-04-06T09:42:33;12.40;99.90
53152;DHT22;39234;53.158;6.322;2023-04-06T09:44:59;12.40;99.90
53152;DHT22;39234;53.158;6.322;2023-04-06T09:47:25;12.50;99.90
53152;DHT22;39234;53.158;6.322;2023-04-06T09:49:56;12.50;99.90
53152;DHT22;39234;53.158;6.322;2023-04-06T09:52:37;12.50;99.90
53152;DHT22;39234;53.158;6.322;2023-04-06T09:55:04;12.70;99.90
53152;DHT22;39234;53.158;6.322;2023-04-06T09:57:58;12.50;99.90
53152;DHT22;39234;53.158;6.322;2023-04-06T10:00:28;12.40;99.90
53152;DHT22;39234;53.158;6.322;2023-04-06T10:05:37;12.50;99.90
53152;DHT22;39234;53.158;6.322;2023-04-06T10:08:12;12.30;99.90
53152;DHT22;39234;53.158;6.322;2023-04-06T10:10:39;12.40;99.90
53152;DHT22;39234;53.158;6.322;2023-04-06T10:13:05;12.40;99.90
53152;DHT22;39234;53.158;6.322;2023-04-06T10:15:31;12.60;99.90
53152;DHT22;39234;53.158;6.322;2023-04-06T10:18:01;12.50;99.90
53152;DHT22;39234;53.158;6.322;2023-04-06T10:25:52;12.80;99.90
53152;DHT22;39234;53.158;6.322;2023-04-06T10:28:19;12.90;99.90
53152;DHT22;39234;53.158;6.322;2023-04-06T10:30:45;13.10;99.90
53152;DHT22;39234;53.158;6.322;2023-04-06T10:33:19;15.20;99.90
53152;DHT22;39234;53.158;6.322;2023-04-06T10:35:45;13.60;99.90
53152;DHT22;39234;53.158;6.322;2023-04-06T10:38:11;13.50;99.90
53152;DHT22;39234;53.158;6.322;2023-04-06T10:40:41;13.40;99.90
53152;DHT22;39234;53.158;6.322;2023-04-06T10:43:13;13.60;99.90
53152;DHT22;39234;53.158;6.322;2023-04-06T10:45:40;13.40;99.90
53152;DHT22;39234;53.158;6.322;2023-04-06T10:48:17;13.30;99.90
53152;DHT22;39234;53.158;6.322;2023-04-06T10:50:52;12.90;99.90
53152;DHT22;39234;53.158;6.322;2023-04-06T10:53:23;13.10;99.90
53152;DHT22;39234;53.158;6.322;2023-04-06T10:55:56;13.40;99.90
53152;DHT22;39234;53.158;6.322;2023-04-06T10:58:27;13.70;99.90
53152;DHT22;39234;53.158;6.322;2023-04-06T11:00:54;13.80;99.90
53152;DHT22;39234;53.158;6.322;2023-04-06T11:03:21;13.70;99.90
53152;DHT22;39234;53.158;6.322;2023-04-06T11:05:48;13.70;99.90
53152;DHT22;39234;53.158;6.322;2023-04-06T11:08:33;13.80;99.90
53152;DHT22;39234;53.158;6.322;2023-04-06T11:13:51;13.80;99.90
53152;DHT22;39234;53.158;6.322;2023-04-06T11:16:19;13.80;99.90
53152;DHT22;39234;53.158;6.322;2023-04-06T11:18:56;13.60;99.90
53152;DHT22;39234;53.158;6.322;2023-04-06T11:21:36;13.70;99.90
53152;DHT22;39234;53.158;6.322;2023-04-06T11:24:09;13.20;99.90
53152;DHT22;39234;53.158;6.322;2023-04-06T11:26:43;12.90;99.90
53152;DHT22;39234;53.158;6.322;2023-04-06T11:29:11;13.10;99.90
53152;DHT22;39234;53.158;6.322;2023-04-06T11:31:41;13.20;99.90
53152;DHT22;39234;53.158;6.322;2023-04-06T11:34:17;13.10;99.90
53152;DHT22;39234;53.158;6.322;2023-04-06T11:36:44;13.20;99.90
53152;DHT22;39234;53.158;6.322;2023-04-06T11:39:11;13.10;99.90
53152;DHT22;39234;53.158;6.322;2023-04-06T11:41:37;13.40;99.90
53152;DHT22;39234;53.158;6.322;2023-04-06T11:44:04;13.20;99.90
53152;DHT22;39234;53.158;6.322;2023-04-06T11:46:31;13.20;99.90
53152;DHT22;39234;53.158;6.322;2023-04-06T11:49:00;13.30;99.90
53152;DHT22;39234;53.158;6.322;2023-04-06T11:51:26;13.30;99.90
53152;DHT22;39234;53.158;6.322;2023-04-06T11:53:53;13.50;99.90
53152;DHT22;39234;53.158;6.322;2023-04-06T11:56:29;13.10;99.90
53152;DHT22;39234;53.158;6.322;2023-04-06T11:58:56;12.90;99.90
53152;DHT22;39234;53.158;6.322;2023-04-06T12:01:24;12.90;99.90
53152;DHT22;39234;53.158;6.322;2023-04-06T12:03:51;12.90;99.90
53152;DHT22;39234;53.158;6.322;2023-04-06T12:06:17;12.70;99.90
53152;DHT22;39234;53.158;6.322;2023-04-06T12:08:43;12.50;99.90
53152;DHT22;39234;53.158;6.322;2023-04-06T12:11:10;12.50;99.90
53152;DHT22;39234;53.158;6.322;2023-04-06T12:13:36;12.60;99.90
53152;DHT22;39234;53.158;6.322;2023-04-06T12:16:02;12.60;99.90
53152;DHT22;39234;53.158;6.322;2023-04-06T12:18:29;12.60;99.90
53152;DHT22;39234;53.158;6.322;2023-04-06T12:20:55;14.00;99.90
53152;DHT22;39234;53.158;6.322;2023-04-06T12:23:21;12.70;99.90
53152;DHT22;39234;53.158;6.322;2023-04-06T12:25:46;12.60;99.90
53152;DHT22;39234;53.158;6.322;2023-04-06T12:28:12;12.60;99.90
53152;DHT22;39234;53.158;6.322;2023-04-06T12:30:38;12.80;99.90
53152;DHT22;39234;53.158;6.322;2023-04-06T12:33:06;12.60;99.90
53152;DHT22;39234;53.158;6.322;2023-04-06T12:35:35;12.70;99.90
53152;DHT22;39234;53.158;6.322;2023-04-06T12:38:02;12.80;99.90
53152;DHT22;39234;53.158;6.322;2023-04-06T12:40:28;12.60;99.90
53152;DHT22;39234;53.158;6.322;2023-04-06T12:42:53;12.60;99.90
53152;DHT22;39234;53.158;6.322;2023-04-06T12:45:19;12.40;99.90
53152;DHT22;39234;53.158;6.322;2023-04-06T12:47:45;12.30;99.90
53152;DHT22;39234;53.158;6.322;2023-04-06T12:50:11;12.20;99.90
53152;DHT22;39234;53.158;6.322;2023-04-06T12:52:37;12.60;99.90
53152;DHT22;39234;53.158;6.322;2023-04-06T12:55:03;12.50;99.90
53152;DHT22;39234;53.158;6.322;2023-04-06T12:57:30;12.40;99.90
53152;DHT22;39234;53.158;6.322;2023-04-06T12:59:57;12.20;99.90
53152;DHT22;39234;53.158;6.322;2023-04-06T13:02:22;12.30;99.90
53152;DHT22;39234;53.158;6.322;2023-04-06T13:04:49;12.10;99.90
53152;DHT22;39234;53.158;6.322;2023-04-06T13:07:15;12.10;99.90
53152;DHT22;39234;53.158;6.322;2023-04-06T13:09:41;12.30;99.90
53152;DHT22;39234;53.158;6.322;2023-04-06T13:12:07;12.20;99.90
53152;DHT22;39234;53.158;6.322;2023-04-06T13:14:33;12.40;99.90
53152;DHT22;39234;53.158;6.322;2023-04-06T13:16:59;12.60;99.90
53152;DHT22;39234;53.158;6.322;2023-04-06T13:19:25;12.70;99.90
53152;DHT22;39234;53.158;6.322;2023-04-06T13:21:52;12.80;99.90
53152;DHT22;39234;53.158;6.322;2023-04-06T13:24:17;12.90;99.90
53152;DHT22;39234;53.158;6.322;2023-04-06T13:26:45;13.10;99.90
53152;DHT22;39234;53.158;6.322;2023-04-06T13:29:11;13.10;99.90
53152;DHT22;39234;53.158;6.322;2023-04-06T13:31:36;12.90;99.90
53152;DHT22;39234;53.158;6.322;2023-04-06T13:34:03;13.00;99.90
53152;DHT22;39234;53.158;6.322;2023-04-06T13:36:29;13.10;99.90
53152;DHT22;39234;53.158;6.322;2023-04-06T13:38:55;12.70;99.90
53152;DHT22;39234;53.158;6.322;2023-04-06T13:41:22;12.80;99.90
53152;DHT22;39234;53.158;6.322;2023-04-06T13:43:48;12.90;99.90
53152;DHT22;39234;53.158;6.322;2023-04-06T13:46:14;12.70;99.90
53152;DHT22;39234;53.158;6.322;2023-04-06T13:48:40;12.60;99.90
53152;DHT22;39234;53.158;6.322;2023-04-06T13:51:13;12.60;99.90
53152;DHT22;39234;53.158;6.322;2023-04-06T13:53:39;12.50;99.90
53152;DHT22;39234;53.158;6.322;2023-04-06T13:56:07;12.40;99.90
53152;DHT22;39234;53.158;6.322;2023-04-06T13:58:33;12.20;99.90
53152;DHT22;39234;53.158;6.322;2023-04-06T14:01:07;12.20;99.90
53152;DHT22;39234;53.158;6.322;2023-04-06T14:03:35;12.20;99.90
53152;DHT22;39234;53.158;6.322;2023-04-06T14:06:01;12.30;99.90
53152;DHT22;39234;53.158;6.322;2023-04-06T14:08:34;11.90;99.90
53152;DHT22;39234;53.158;6.322;2023-04-06T14:11:00;11.90;99.90
53152;DHT22;39234;53.158;6.322;2023-04-06T14:13:26;12.00;99.90
53152;DHT22;39234;53.158;6.322;2023-04-06T14:15:55;11.80;99.90
53152;DHT22;39234;53.158;6.322;2023-04-06T14:18:21;11.80;99.90
53152;DHT22;39234;53.158;6.322;2023-04-06T14:20:58;11.50;99.90
53152;DHT22;39234;53.158;6.322;2023-04-06T14:23:24;11.30;99.90
53152;DHT22;39234;53.158;6.322;2023-04-06T14:26:04;11.40;99.90
53152;DHT22;39234;53.158;6.322;2023-04-06T14:28:34;11.20;99.90
53152;DHT22;39234;53.158;6.322;2023-04-06T14:31:02;11.20;99.90
53152;DHT22;39234;53.158;6.322;2023-04-06T14:33:34;11.20;99.90
53152;DHT22;39234;53.158;6.322;2023-04-06T14:36:03;11.10;99.90
53152;DHT22;39234;53.158;6.322;2023-04-06T14:38:28;9.90;99.90
53152;DHT22;39234;53.158;6.322;2023-04-06T14:40:54;10.90;99.90
53152;DHT22;39234;53.158;6.322;2023-04-06T14:43:21;10.80;99.90
53152;DHT22;39234;53.158;6.322;2023-04-06T14:45:47;10.50;99.90
53152;DHT22;39234;53.158;6.322;2023-04-06T14:48:13;10.50;99.90
53152;DHT22;39234;53.158;6.322;2023-04-06T14:50:40;10.40;99.90
53152;DHT22;39234;53.158;6.322;2023-04-06T14:53:05;12.00;99.90
53152;DHT22;39234;53.158;6.322;2023-04-06T14:55:31;10.40;99.90
53152;DHT22;39234;53.158;6.322;2023-04-06T14:57:57;10.10;99.90
53152;DHT22;39234;53.158;6.322;2023-04-06T15:00:23;10.00;99.90
53152;DHT22;39234;53.158;6.322;2023-04-06T15:02:49;9.70;99.90
53152;DHT22;39234;53.158;6.322;2023-04-06T15:05:15;9.60;99.90
53152;DHT22;39234;53.158;6.322;2023-04-06T15:07:40;9.40;99.90
53152;DHT22;39234;53.158;6.322;2023-04-06T15:10:07;9.50;99.90
53152;DHT22;39234;53.158;6.322;2023-04-06T15:12:35;9.40;99.90
53152;DHT22;39234;53.158;6.322;2023-04-06T15:15:01;9.50;99.90
53152;DHT22;39234;53.158;6.322;2023-04-06T15:17:27;9.30;99.90
53152;DHT22;39234;53.158;6.322;2023-04-06T15:19:52;9.20;99.90
53152;DHT22;39234;53.158;6.322;2023-04-06T15:22:19;9.30;99.90
53152;DHT22;39234;53.158;6.322;2023-04-06T15:24:44;9.30;99.90
53152;DHT22;39234;53.158;6.322;2023-04-06T15:27:10;9.60;99.90
53152;DHT22;39234;53.158;6.322;2023-04-06T15:29:36;9.30;99.90
53152;DHT22;39234;53.158;6.322;2023-04-06T15:32:01;9.20;99.90
53152;DHT22;39234;53.158;6.322;2023-04-06T15:34:27;9.30;99.90
53152;DHT22;39234;53.158;6.322;2023-04-06T15:36:55;9.00;99.90
53152;DHT22;39234;53.158;6.322;2023-04-06T15:39:26;9.00;99.90
53152;DHT22;39234;53.158;6.322;2023-04-06T15:41:53;9.10;99.90
53152;DHT22;39234;53.158;6.322;2023-04-06T15:44:19;9.00;99.90
53152;DHT22;39234;53.158;6.322;2023-04-06T15:46:46;8.90;99.90
53152;DHT22;39234;53.158;6.322;2023-04-06T15:49:11;8.80;99.90
53152;DHT22;39234;53.158;6.322;2023-04-06T15:51:37;9.00;99.90
53152;DHT22;39234;53.158;6.322;2023-04-06T15:54:03;8.90;99.90
53152;DHT22;39234;53.158;6.322;2023-04-06T15:56:28;8.70;99.90
53152;DHT22;39234;53.158;6.322;2023-04-06T15:58:54;8.90;99.90
53152;DHT22;39234;53.158;6.322;2023-04-06T16:01:20;8.80;99.90
53152;DHT22;39234;53.158;6.322;2023-04-06T16:03:46;8.70;99.90
53152;DHT22;39234;53.158;6.322;2023-04-06T16:06:12;8.80;99.90
53152;DHT22;39234;53.158;6.322;2023-04-06T16:08:38;8.60;99.90
53152;DHT22;39234;53.158;6.322;2023-04-06T16:11:04;8.40;99.90
53152;DHT22;39234;53.158;6.322;2023-04-06T16:13:31;8.40;99.90
53152;DHT22;39234;53.158;6.322;2023-04-06T16:15:56;8.40;99.90
53152;DHT22;39234;53.158;6.322;2023-04-06T16:18:22;7.80;99.90
53152;DHT22;39234;53.158;6.322;2023-04-06T16:20:48;8.00;99.90
53152;DHT22;39234;53.158;6.322;2023-04-06T16:23:14;8.10;99.90
53152;DHT22;39234;53.158;6.322;2023-04-06T16:25:40;7.90;99.90
53152;DHT22;39234;53.158;6.322;2023-04-06T16:28:06;8.10;99.90
53152;DHT22;39234;53.158;6.322;2023-04-06T16:30:36;7.90;99.90
53152;DHT22;39234;53.158;6.322;2023-04-06T16:33:02;7.90;99.90
53152;DHT22;39234;53.158;6.322;2023-04-06T16:35:28;8.00;99.90
53152;DHT22;39234;53.158;6.322;2023-04-06T16:37:54;7.80;99.90
53152;DHT22;39234;53.158;6.322;2023-04-06T16:40:20;8.60;99.90
53152;DHT22;39234;53.158;6.322;2023-04-06T16:42:45;7.70;99.90
53152;DHT22;39234;53.158;6.322;2023-04-06T16:45:11;8.70;99.90
53152;DHT22;39234;53.158;6.322;2023-04-06T16:47:37;8.30;99.90
53152;DHT22;39234;53.158;6.322;2023-04-06T16:50:04;8.20;99.90
53152;DHT22;39234;53.158;6.322;2023-04-06T16:52:31;7.50;99.90
53152;DHT22;39234;53.158;6.322;2023-04-06T16:54:57;7.70;99.90
53152;DHT22;39234;53.158;6.322;2023-04-06T16:57:22;7.60;99.90
53152;DHT22;39234;53.158;6.322;2023-04-06T16:59:57;7.60;99.90
53152;DHT22;39234;53.158;6.322;2023-04-06T17:02:23;8.30;99.90
53152;DHT22;39234;53.158;6.322;2023-04-06T17:04:49;9.30;99.90
53152;DHT22;39234;53.158;6.322;2023-04-06T17:07:15;7.10;99.90
53152;DHT22;39234;53.158;6.322;2023-04-06T17:09:41;7.30;99.90
53152;DHT22;39234;53.158;6.322;2023-04-06T17:12:07;7.90;99.90
53152;DHT22;39234;53.158;6.322;2023-04-06T17:14:33;8.30;99.90
53152;DHT22;39234;53.158;6.322;2023-04-06T17:16:59;6.90;99.90
53152;DHT22;39234;53.158;6.322;2023-04-06T17:19:25;6.70;99.90
53152;DHT22;39234;53.158;6.322;2023-04-06T17:21:52;6.70;99.90
53152;DHT22;39234;53.158;6.322;2023-04-06T17:24:17;6.70;99.90
53152;DHT22;39234;53.158;6.322;2023-04-06T17:26:43;6.70;99.90
53152;DHT22;39234;53.158;6.322;2023-04-06T17:29:09;6.80;99.90
53152;DHT22;39234;53.158;6.322;2023-04-06T17:31:35;6.70;99.90
53152;DHT22;39234;53.158;6.322;2023-04-06T17:34:01;7.00;99.90
53152;DHT22;39234;53.158;6.322;2023-04-06T17:36:26;6.70;99.90
53152;DHT22;39234;53.158;6.322;2023-04-06T17:38:53;6.60;99.90
53152;DHT22;39234;53.158;6.322;2023-04-06T17:41:19;6.50;99.90
53152;DHT22;39234;53.158;6.322;2023-04-06T17:43:46;6.50;99.90
53152;DHT22;39234;53.158;6.322;2023-04-06T17:46:12;6.70;99.90
53152;DHT22;39234;53.158;6.322;2023-04-06T17:48:38;6.60;99.90
53152;DHT22;39234;53.158;6.322;2023-04-06T17:51:04;6.60;99.90
53152;DHT22;39234;53.158;6.322;2023-04-06T17:53:30;6.70;99.90
53152;DHT22;39234;53.158;6.322;2023-04-06T17:56:01;6.70;99.90
53152;DHT22;39234;53.158;6.322;2023-04-06T17:58:27;6.40;99.90
53152;DHT22;39234;53.158;6.322;2023-04-06T18:00:53;6.50;99.90
53152;DHT22;39234;53.158;6.322;2023-04-06T18:03:19;6.60;99.90
53152;DHT22;39234;53.158;6.322;2023-04-06T18:05:44;6.60;99.90
53152;DHT22;39234;53.158;6.322;2023-04-06T18:10:38;6.60;99.90
53152;DHT22;39234;53.158;6.322;2023-04-06T18:13:05;6.40;99.90
53152;DHT22;39234;53.158;6.322;2023-04-06T18:15:33;6.60;99.90
53152;DHT22;39234;53.158;6.322;2023-04-06T18:18:00;6.50;99.90
53152;DHT22;39234;53.158;6.322;2023-04-06T18:20:26;6.40;99.90
53152;DHT22;39234;53.158;6.322;2023-04-06T18:22:51;6.50;99.90
53152;DHT22;39234;53.158;6.322;2023-04-06T18:25:17;6.50;99.90
53152;DHT22;39234;53.158;6.322;2023-04-06T18:27:43;6.50;99.90
53152;DHT22;39234;53.158;6.322;2023-04-06T18:30:09;6.50;99.90
53152;DHT22;39234;53.158;6.322;2023-04-06T18:32:37;6.50;99.90
53152;DHT22;39234;53.158;6.322;2023-04-06T18:35:03;6.50;99.90
53152;DHT22;39234;53.158;6.322;2023-04-06T18:37:31;6.50;99.90
53152;DHT22;39234;53.158;6.322;2023-04-06T18:39:56;6.50;99.90
53152;DHT22;39234;53.158;6.322;2023-04-06T18:42:22;6.50;99.90
53152;DHT22;39234;53.158;6.322;2023-04-06T18:44:48;6.60;99.90
53152;DHT22;39234;53.158;6.322;2023-04-06T18:47:14;6.70;99.90
53152;DHT22;39234;53.158;6.322;2023-04-06T18:49:40;6.50;99.90
53152;DHT22;39234;53.158;6.322;2023-04-06T18:52:05;6.50;99.90
53152;DHT22;39234;53.158;6.322;2023-04-06T18:54:31;6.40;99.90
53152;DHT22;39234;53.158;6.322;2023-04-06T18:56:57;6.50;99.90
53152;DHT22;39234;53.158;6.322;2023-04-06T18:59:23;6.60;99.90
53152;DHT22;39234;53.158;6.322;2023-04-06T19:01:50;6.50;99.90
53152;DHT22;39234;53.158;6.322;2023-04-06T19:04:19;6.70;99.90
53152;DHT22;39234;53.158;6.322;2023-04-06T19:06:45;6.60;99.90
53152;DHT22;39234;53.158;6.322;2023-04-06T19:11:37;6.60;99.90
53152;DHT22;39234;53.158;6.322;2023-04-06T19:14:02;6.50;99.90
53152;DHT22;39234;53.158;6.322;2023-04-06T19:16:28;6.40;99.90
53152;DHT22;39234;53.158;6.322;2023-04-06T19:18:54;6.40;99.90
53152;DHT22;39234;53.158;6.322;2023-04-06T19:21:22;6.60;99.90
53152;DHT22;39234;53.158;6.322;2023-04-06T19:23:50;6.40;99.90
53152;DHT22;39234;53.158;6.322;2023-04-06T19:26:17;6.50;99.90
53152;DHT22;39234;53.158;6.322;2023-04-06T19:28:45;6.50;99.90
53152;DHT22;39234;53.158;6.322;2023-04-06T19:31:12;6.60;99.90
53152;DHT22;39234;53.158;6.322;2023-04-06T19:33:39;6.60;99.90
53152;DHT22;39234;53.158;6.322;2023-04-06T19:36:05;6.70;99.90
53152;DHT22;39234;53.158;6.322;2023-04-06T19:38:32;6.50;99.90
53152;DHT22;39234;53.158;6.322;2023-04-06T19:40:59;6.60;99.90
53152;DHT22;39234;53.158;6.322;2023-04-06T19:43:25;6.60;99.90
53152;DHT22;39234;53.158;6.322;2023-04-06T19:45:51;6.40;99.90
53152;DHT22;39234;53.158;6.322;2023-04-06T19:48:17;6.60;99.90
53152;DHT22;39234;53.158;6.322;2023-04-06T19:50:44;6.50;99.90
53152;DHT22;39234;53.158;6.322;2023-04-06T19:53:10;6.50;99.90
53152;DHT22;39234;53.158;6.322;2023-04-06T19:55:36;6.60;99.90
53152;DHT22;39234;53.158;6.322;2023-04-06T19:58:03;6.60;99.90
53152;DHT22;39234;53.158;6.322;2023-04-06T20:00:29;6.50;99.90
53152;DHT22;39234;53.158;6.322;2023-04-06T20:02:55;6.60;99.90
53152;DHT22;39234;53.158;6.322;2023-04-06T20:05:21;6.60;99.90
53152;DHT22;39234;53.158;6.322;2023-04-06T20:07:48;6.60;99.90
53152;DHT22;39234;53.158;6.322;2023-04-06T20:10:15;6.70;99.90
53152;DHT22;39234;53.158;6.322;2023-04-06T20:12:44;6.60;99.90
53152;DHT22;39234;53.158;6.322;2023-04-06T20:15:10;6.70;99.90
53152;DHT22;39234;53.158;6.322;2023-04-06T20:17:37;6.70;99.90
53152;DHT22;39234;53.158;6.322;2023-04-06T20:20:04;6.70;99.90
53152;DHT22;39234;53.158;6.322;2023-04-06T20:22:30;6.70;99.90
53152;DHT22;39234;53.158;6.322;2023-04-06T20:24:55;6.60;99.90
53152;DHT22;39234;53.158;6.322;2023-04-06T20:29:47;6.60;99.90
53152;DHT22;39234;53.158;6.322;2023-04-06T20:32:13;6.60;99.90
53152;DHT22;39234;53.158;6.322;2023-04-06T20:34:48;6.60;99.90
53152;DHT22;39234;53.158;6.322;2023-04-06T20:37:14;6.70;99.90
53152;DHT22;39234;53.158;6.322;2023-04-06T20:42:07;6.80;99.90
53152;DHT22;39234;53.158;6.322;2023-04-06T20:44:33;6.60;99.90
53152;DHT22;39234;53.158;6.322;2023-04-06T20:49:26;6.60;99.90
53152;DHT22;39234;53.158;6.322;2023-04-06T20:51:52;6.60;99.90
53152;DHT22;39234;53.158;6.322;2023-04-06T20:54:18;6.50;99.90
53152;DHT22;39234;53.158;6.322;2023-04-06T20:56:44;6.50;99.90
53152;DHT22;39234;53.158;6.322;2023-04-06T20:59:10;6.60;99.90
53152;DHT22;39234;53.158;6.322;2023-04-06T21:04:02;6.60;99.90
53152;DHT22;39234;53.158;6.322;2023-04-06T21:06:28;6.60;99.90
53152;DHT22;39234;53.158;6.322;2023-04-06T21:08:56;6.80;99.90
53152;DHT22;39234;53.158;6.322;2023-04-06T21:11:22;6.70;99.90
53152;DHT22;39234;53.158;6.322;2023-04-06T21:13:48;6.70;99.90
53152;DHT22;39234;53.158;6.322;2023-04-06T21:16:13;6.70;99.90
53152;DHT22;39234;53.158;6.322;2023-04-06T21:18:39;6.60;99.90
53152;DHT22;39234;53.158;6.322;2023-04-06T21:21:05;6.60;99.90